createdAt,value
2018-03-28T00:00:42.348Z,3.45
2018-03-28T00:03:09.933Z,3.46
2018-03-28T00:05:37.625Z,3.35
2018-03-28T00:08:05.225Z,3.35
2018-03-28T00:10:32.813Z,3.29
2018-03-28T00:13:00.573Z,3.29
2018-03-28T00:15:28.183Z,3.22
2018-03-28T00:17:55.781Z,3.23
2018-03-28T00:20:23.414Z,3.16
2018-03-28T00:22:51.008Z,3.08
2018-03-28T00:25:18.600Z,3.23
2018-03-28T00:27:46.234Z,3.26
2018-03-28T00:30:13.830Z,3.23
2018-03-28T00:32:41.433Z,3.21
2018-03-28T00:35:09.073Z,3.10
2018-03-28T00:37:36.714Z,2.93
2018-03-28T00:40:04.314Z,2.91
2018-03-28T00:42:31.944Z,2.99
2018-03-28T00:44:59.542Z,2.95
2018-03-28T00:47:27.135Z,3.08
2018-03-28T00:49:54.763Z,3.08
2018-03-28T00:52:22.354Z,3.04
2018-03-28T00:54:49.950Z,3.03
2018-03-28T00:57:17.582Z,3.08
2018-03-28T00:59:45.191Z,3.16
2018-03-28T01:02:12.785Z,3.17
2018-03-28T01:04:40.440Z,3.10
2018-03-28T01:07:08.042Z,3.09
2018-03-28T01:09:35.629Z,3.04
2018-03-28T01:12:03.265Z,2.91
2018-03-28T01:14:30.862Z,2.91
2018-03-28T01:16:58.455Z,2.86
2018-03-28T01:19:26.093Z,2.79
2018-03-28T01:21:53.678Z,2.78
2018-03-28T01:24:21.267Z,2.77
2018-03-28T01:26:48.894Z,2.75
2018-03-28T01:29:16.489Z,2.72
2018-03-28T01:31:44.088Z,2.67
2018-03-28T01:34:11.714Z,2.64
2018-03-28T01:36:39.305Z,2.64
2018-03-28T01:39:06.919Z,2.63
2018-03-28T01:41:34.570Z,2.61
2018-03-28T01:44:02.169Z,2.53
2018-03-28T01:46:29.770Z,2.46
2018-03-28T01:48:57.411Z,2.39
2018-03-28T01:51:25.075Z,2.37
2018-03-28T01:53:52.674Z,2.37
2018-03-28T01:56:20.315Z,2.37
2018-03-28T01:58:47.900Z,2.36
2018-03-28T02:01:15.512Z,2.12
2018-03-28T02:03:43.174Z,2.32
2018-03-28T02:06:10.772Z,2.31
2018-03-28T02:08:38.363Z,2.27
2018-03-28T02:11:05.995Z,2.24
2018-03-28T02:13:33.589Z,2.10
2018-03-28T02:16:01.178Z,2.10
2018-03-28T02:18:28.800Z,2.18
2018-03-28T02:20:56.395Z,2.17
2018-03-28T02:23:24.012Z,2.23
2018-03-28T02:25:51.630Z,2.29
2018-03-28T02:28:19.232Z,2.35
2018-03-28T02:30:46.826Z,2.42
2018-03-28T02:33:14.460Z,2.46
2018-03-28T02:35:42.058Z,2.55
2018-03-28T02:38:09.654Z,2.59
2018-03-28T02:40:37.277Z,2.67
2018-03-28T02:43:04.907Z,2.64
2018-03-28T02:45:32.503Z,2.68
2018-03-28T02:48:00.144Z,2.71
2018-03-28T02:50:27.773Z,2.74
2018-03-28T02:52:55.376Z,2.77
2018-03-28T02:55:23.026Z,2.75
2018-03-28T02:57:50.628Z,2.66
2018-03-28T03:00:18.280Z,2.67
2018-03-28T03:02:45.932Z,2.70
2018-03-28T03:05:13.531Z,2.71
2018-03-28T03:07:41.130Z,2.69
2018-03-28T03:10:08.781Z,2.71
2018-03-28T03:12:36.372Z,2.78
2018-03-28T03:15:03.975Z,2.82
2018-03-28T03:17:31.615Z,2.83
2018-03-28T03:19:59.214Z,2.89
2018-03-28T03:22:26.804Z,2.77
2018-03-28T03:24:54.442Z,2.80
2018-03-28T03:27:22.044Z,2.77
2018-03-28T03:29:49.651Z,2.78
2018-03-28T03:32:17.289Z,2.77
2018-03-28T03:34:44.882Z,2.79
2018-03-28T03:37:12.474Z,2.77
2018-03-28T03:39:40.099Z,2.78
2018-03-28T03:42:07.710Z,2.83
2018-03-28T03:44:35.299Z,2.85
2018-03-28T03:47:02.934Z,2.87
2018-03-28T03:49:30.533Z,2.83
2018-03-28T03:51:58.125Z,2.68
2018-03-28T03:54:25.763Z,2.74
2018-03-28T03:56:53.354Z,2.70
2018-03-28T03:59:20.946Z,2.74
2018-03-28T04:01:48.590Z,2.84
2018-03-28T04:04:16.177Z,2.83
2018-03-28T04:06:43.772Z,2.82
2018-03-28T04:09:11.400Z,2.82
2018-03-28T04:11:39.001Z,2.84
2018-03-28T04:14:06.600Z,2.85
2018-03-28T04:16:34.476Z,2.88
2018-03-28T04:19:02.080Z,2.91
2018-03-28T04:21:29.666Z,2.93
2018-03-28T04:23:57.300Z,2.90
2018-03-28T04:26:24.893Z,2.98
2018-03-28T04:28:52.494Z,3.03
2018-03-28T04:31:20.168Z,3.07
2018-03-28T04:33:47.769Z,3.07
2018-03-28T04:36:15.355Z,3.08
2018-03-28T04:38:42.987Z,3.17
2018-03-28T04:41:10.586Z,3.26
2018-03-28T04:43:38.178Z,3.28
2018-03-28T04:46:05.810Z,3.30
2018-03-28T04:48:33.399Z,3.24
2018-03-28T04:51:01.002Z,3.15
2018-03-28T04:53:28.643Z,3.20
2018-03-28T04:55:56.243Z,3.16
2018-03-28T04:58:23.846Z,3.17
2018-03-28T05:00:51.474Z,3.23
2018-03-28T05:03:19.082Z,3.33
2018-03-28T05:05:46.675Z,3.41
2018-03-28T05:08:14.303Z,3.48
2018-03-28T05:10:41.891Z,3.53
2018-03-28T05:13:09.482Z,3.49
2018-03-28T05:15:37.137Z,3.50
2018-03-28T05:18:04.748Z,3.44
2018-03-28T05:20:32.368Z,3.44
2018-03-28T05:23:00.010Z,3.48
2018-03-28T05:25:27.596Z,3.54
2018-03-28T05:27:55.186Z,3.57
2018-03-28T05:30:22.818Z,3.62
2018-03-28T05:32:50.402Z,3.69
2018-03-28T05:35:17.990Z,3.73
2018-03-28T05:37:45.618Z,3.77
2018-03-28T05:40:13.210Z,3.80
2018-03-28T05:42:40.797Z,3.85
2018-03-28T05:45:08.487Z,3.86
2018-03-28T05:47:36.071Z,3.98
2018-03-28T05:50:03.671Z,4.51
2018-03-28T05:52:31.300Z,4.75
2018-03-28T05:54:58.899Z,4.97
2018-03-28T05:57:26.502Z,5.40
2018-03-28T05:59:54.125Z,5.51
2018-03-28T06:02:21.716Z,5.76
2018-03-28T06:04:49.294Z,5.63
2018-03-28T06:07:16.926Z,5.52
2018-03-28T06:09:44.506Z,5.30
2018-03-28T06:12:12.100Z,5.21
2018-03-28T06:14:39.730Z,5.06
2018-03-28T06:17:07.314Z,5.04
2018-03-28T06:19:34.899Z,5.04
2018-03-28T06:22:02.522Z,5.07
2018-03-28T06:24:30.110Z,4.98
2018-03-28T06:26:57.701Z,5.04
2018-03-28T06:29:25.403Z,5.09
2018-03-28T06:31:53.000Z,5.21
2018-03-28T06:34:20.589Z,5.28
2018-03-28T06:36:48.206Z,5.32
2018-03-28T06:39:15.801Z,5.40
2018-03-28T06:41:43.402Z,5.40
2018-03-28T06:44:11.031Z,5.51
2018-03-28T06:49:12.386Z,5.78
2018-03-28T06:51:39.976Z,5.80
2018-03-28T06:54:07.568Z,5.54
2018-03-28T06:56:35.192Z,5.71
2018-03-28T06:59:02.809Z,5.87
2018-03-28T07:01:30.406Z,5.94
2018-03-28T07:03:58.074Z,5.94
2018-03-28T07:06:25.662Z,5.98
2018-03-28T07:08:53.291Z,6.10
2018-03-28T07:11:20.967Z,6.10
2018-03-28T07:13:48.611Z,6.03
2018-03-28T07:16:17.120Z,5.94
2018-03-28T07:18:44.753Z,5.98
2018-03-28T07:21:12.518Z,6.10
2018-03-28T07:23:40.108Z,6.23
2018-03-28T07:26:07.740Z,6.08
2018-03-28T07:28:35.555Z,6.17
2018-03-28T07:31:04.936Z,6.13
2018-03-28T07:33:32.671Z,6.18
2018-03-28T07:36:00.330Z,6.20
2018-03-28T07:38:27.930Z,6.19
2018-03-28T07:40:58.473Z,6.25
2018-03-28T07:43:26.068Z,6.41
2018-03-28T07:45:53.662Z,6.47
2018-03-28T07:48:21.381Z,6.62
2018-03-28T07:50:49.277Z,6.66
2018-03-28T07:53:16.994Z,6.61
2018-03-28T07:55:44.675Z,6.56
2018-03-28T07:58:12.267Z,6.57
2018-03-28T08:00:39.974Z,6.60
2018-03-28T08:03:07.602Z,6.62
2018-03-28T08:05:35.237Z,6.78
2018-03-28T08:08:02.858Z,6.89
2018-03-28T08:10:30.544Z,6.78
2018-03-28T08:12:58.207Z,7.08
2018-03-28T08:15:25.827Z,7.31
2018-03-28T08:17:54.816Z,7.55
2018-03-28T08:20:22.642Z,7.64
2018-03-28T08:22:50.229Z,7.59
2018-03-28T08:25:18.610Z,7.73
2018-03-28T08:27:46.894Z,7.81
2018-03-28T08:30:14.498Z,7.92
2018-03-28T08:32:42.357Z,8.08
2018-03-28T08:35:09.943Z,8.30
2018-03-28T08:37:37.643Z,8.56
2018-03-28T08:40:05.307Z,8.75
2018-03-28T08:42:33.003Z,9.01
2018-03-28T08:45:01.556Z,9.15
2018-03-28T08:47:29.199Z,9.36
2018-03-28T08:49:56.823Z,9.52
2018-03-28T08:52:24.509Z,9.67
2018-03-28T08:54:52.149Z,9.83
2018-03-28T08:57:19.793Z,9.96
2018-03-28T08:59:48.499Z,10.10
2018-03-28T09:02:16.339Z,10.25
2018-03-28T09:04:44.139Z,10.38
2018-03-28T09:09:47.371Z,11.06
2018-03-28T09:12:15.318Z,11.46
2018-03-28T09:14:46.458Z,11.77
2018-03-28T09:17:14.423Z,11.95
2018-03-28T09:19:42.159Z,11.94
2018-03-28T09:22:13.929Z,12.07
2018-03-28T09:27:32.549Z,11.64
2018-03-28T09:30:01.766Z,11.66
2018-03-28T09:32:29.463Z,11.62
2018-03-28T09:34:57.080Z,11.58
2018-03-28T09:37:24.860Z,11.63
2018-03-28T09:39:52.808Z,11.89
2018-03-28T09:42:20.405Z,12.08
2018-03-28T09:44:48.228Z,12.16
2018-03-28T09:47:15.827Z,12.22
2018-03-28T09:49:43.416Z,12.28
2018-03-28T09:52:11.114Z,12.39
2018-03-28T09:54:41.093Z,12.36
2018-03-28T09:57:08.785Z,12.20
2018-03-28T09:59:36.444Z,12.29
2018-03-28T10:02:10.519Z,12.19
2018-03-28T10:04:43.561Z,12.40
2018-03-28T10:07:11.159Z,12.44
2018-03-28T10:09:38.773Z,13.00
2018-03-28T10:12:06.397Z,13.20
2018-03-28T10:14:33.989Z,13.35
2018-03-28T10:17:01.621Z,13.30
2018-03-28T10:19:30.869Z,13.31
2018-03-28T10:21:58.554Z,13.51
2018-03-28T10:24:27.318Z,13.51
2018-03-28T10:26:55.005Z,13.66
2018-03-28T10:29:23.665Z,13.67
2018-03-28T10:31:51.310Z,13.69
2018-03-28T10:34:19.051Z,13.51
2018-03-28T10:36:46.648Z,13.52
2018-03-28T10:39:14.515Z,13.52
2018-03-28T10:41:42.160Z,13.82
2018-03-28T10:44:09.785Z,13.95
2018-03-28T10:46:37.399Z,13.98
2018-03-28T10:49:07.422Z,13.68
2018-03-28T10:51:35.156Z,13.34
2018-03-28T10:54:02.857Z,13.35
2018-03-28T10:56:30.499Z,13.33
2018-03-28T10:58:58.440Z,13.27
2018-03-28T11:01:26.139Z,13.26
2018-03-28T11:03:53.756Z,13.25
2018-03-28T11:06:21.359Z,13.02
2018-03-28T11:08:49.019Z,13.02
2018-03-28T11:11:16.656Z,13.14
2018-03-28T11:13:44.255Z,13.09
2018-03-28T11:16:11.856Z,12.94
2018-03-28T11:18:39.496Z,12.83
2018-03-28T11:21:07.083Z,12.97
2018-03-28T11:23:34.658Z,13.26
2018-03-28T11:26:02.293Z,13.47
2018-03-28T11:28:29.865Z,13.25
2018-03-28T11:30:57.442Z,13.66
2018-03-28T11:33:25.054Z,13.64
2018-03-28T11:35:52.891Z,13.85
2018-03-28T11:38:20.473Z,14.10
2018-03-28T11:40:48.078Z,14.11
2018-03-28T11:43:15.670Z,13.86
2018-03-28T11:45:43.279Z,13.71
2018-03-28T11:48:10.940Z,13.91
2018-03-28T11:50:38.529Z,13.99
2018-03-28T11:53:06.129Z,13.76
2018-03-28T11:55:33.759Z,13.53
2018-03-28T11:58:01.371Z,13.65
2018-03-28T12:00:28.958Z,13.95
2018-03-28T12:02:56.572Z,13.90
2018-03-28T12:05:24.154Z,14.13
2018-03-28T12:07:51.746Z,14.40
2018-03-28T12:10:19.374Z,14.35
2018-03-28T12:12:46.947Z,14.10
2018-03-28T12:15:14.542Z,14.26
2018-03-28T12:17:42.178Z,14.36
2018-03-28T12:20:09.766Z,14.49
2018-03-28T12:22:37.358Z,14.88
2018-03-28T12:25:05.025Z,15.21
2018-03-28T12:27:32.594Z,15.42
2018-03-28T12:30:00.182Z,15.39
2018-03-28T12:32:27.873Z,15.70
2018-03-28T12:34:55.469Z,15.78
2018-03-28T12:37:23.054Z,15.46
2018-03-28T12:39:50.680Z,15.21
2018-03-28T12:42:18.577Z,14.91
2018-03-28T12:44:46.168Z,14.37
2018-03-28T12:47:13.866Z,14.14
2018-03-28T12:49:41.492Z,13.97
2018-03-28T12:52:09.802Z,13.55
2018-03-28T12:54:37.422Z,13.12
2018-03-28T12:57:04.997Z,12.90
2018-03-28T12:59:32.571Z,13.19
2018-03-28T13:02:00.197Z,13.27
2018-03-28T13:04:27.781Z,13.44
2018-03-28T13:06:55.356Z,13.60
2018-03-28T13:09:22.981Z,13.86
2018-03-28T13:11:50.552Z,14.11
2018-03-28T13:14:18.134Z,14.04
2018-03-28T13:16:45.760Z,14.23
2018-03-28T13:19:13.353Z,14.48
2018-03-28T13:21:40.914Z,13.85
2018-03-28T13:24:08.543Z,13.66
2018-03-28T13:26:36.134Z,13.65
2018-03-28T13:29:03.709Z,13.47
2018-03-28T13:31:31.379Z,13.36
2018-03-28T13:33:58.951Z,13.44
2018-03-28T13:36:26.553Z,13.59
2018-03-28T13:38:54.173Z,13.40
2018-03-28T13:41:21.779Z,13.32
2018-03-28T13:43:49.366Z,13.48
2018-03-28T13:46:16.975Z,14.00
2018-03-28T13:48:44.542Z,14.33
2018-03-28T13:51:12.164Z,14.62
2018-03-28T13:53:39.780Z,14.39
2018-03-28T13:56:07.357Z,13.83
2018-03-28T13:58:34.938Z,14.12
2018-03-28T14:01:02.629Z,14.18
2018-03-28T14:03:30.206Z,13.99
2018-03-28T14:05:57.812Z,14.02
2018-03-28T14:08:25.446Z,13.97
2018-03-28T14:10:53.026Z,13.69
2018-03-28T14:13:20.609Z,13.53
2018-03-28T14:15:48.225Z,13.56
2018-03-28T14:18:15.805Z,13.63
2018-03-28T14:20:43.385Z,13.55
2018-03-28T14:23:11.013Z,13.56
2018-03-28T14:25:38.586Z,13.22
2018-03-28T14:28:06.184Z,13.12
2018-03-28T14:30:33.828Z,13.04
2018-03-28T14:33:01.407Z,13.11
2018-03-28T14:35:29.012Z,13.17
2018-03-28T14:37:56.632Z,13.05
2018-03-28T14:40:24.207Z,12.87
2018-03-28T14:42:54.590Z,12.79
2018-03-28T14:45:19.436Z,12.72
2018-03-28T14:47:47.013Z,12.67
2018-03-28T14:50:14.588Z,12.66
2018-03-28T14:52:42.207Z,12.56
2018-03-28T14:55:09.798Z,12.48
2018-03-28T14:57:37.394Z,12.42
2018-03-28T15:00:05.006Z,12.35
2018-03-28T15:02:32.585Z,12.37
2018-03-28T15:05:00.161Z,12.26
2018-03-28T15:07:27.784Z,12.17
2018-03-28T15:09:55.364Z,12.10
2018-03-28T15:12:22.948Z,12.07
2018-03-28T15:14:50.550Z,12.09
2018-03-28T15:17:18.160Z,12.13
2018-03-28T15:19:45.783Z,12.13
2018-03-28T15:22:13.416Z,12.14
2018-03-28T15:24:41.015Z,12.14
2018-03-28T15:27:08.612Z,12.17
2018-03-28T15:29:36.234Z,12.20
2018-03-28T15:32:03.821Z,12.18
2018-03-28T15:34:31.425Z,12.20
2018-03-28T15:36:59.072Z,11.95
2018-03-28T15:39:26.708Z,11.84
2018-03-28T15:41:54.286Z,11.81
2018-03-28T15:44:21.942Z,11.77
2018-03-28T15:46:49.531Z,11.73
2018-03-28T15:49:17.117Z,11.66
2018-03-28T15:51:44.764Z,11.54
2018-03-28T15:54:12.358Z,11.45
2018-03-28T15:56:39.976Z,11.38
2018-03-28T15:59:07.645Z,11.21
2018-03-28T16:01:35.268Z,11.04
2018-03-28T16:04:02.854Z,11.01
2018-03-28T16:06:30.496Z,10.95
2018-03-28T16:08:58.078Z,10.84
2018-03-28T16:11:25.711Z,10.65
2018-03-28T16:13:53.584Z,10.53
2018-03-28T16:16:21.164Z,10.35
2018-03-28T16:18:48.754Z,10.20
2018-03-28T16:21:16.373Z,10.04
2018-03-28T16:23:43.943Z,9.90
2018-03-28T16:26:11.526Z,9.68
2018-03-28T16:28:39.155Z,9.52
2018-03-28T16:31:06.731Z,9.32
2018-03-28T16:33:34.363Z,9.15
2018-03-28T16:36:01.986Z,9.11
2018-03-28T16:38:29.576Z,8.91
2018-03-28T16:40:57.481Z,8.73
2018-03-28T16:43:25.138Z,8.54
2018-03-28T16:45:52.738Z,8.44
2018-03-28T16:48:20.375Z,8.34
2018-03-28T16:50:48.008Z,8.28
2018-03-28T16:53:15.586Z,8.22
2018-03-28T16:55:43.155Z,8.13
2018-03-28T16:58:10.793Z,8.10
2018-03-28T17:00:38.386Z,8.10
2018-03-28T17:03:05.968Z,8.03
2018-03-28T17:05:33.575Z,7.84
2018-03-28T17:08:01.168Z,7.71
2018-03-28T17:10:28.746Z,7.74
2018-03-28T17:12:56.358Z,7.66
2018-03-28T17:17:57.755Z,7.64
2018-03-28T17:20:25.327Z,7.49
2018-03-28T17:22:52.920Z,7.32
2018-03-28T17:25:20.539Z,7.16
2018-03-28T17:27:48.115Z,7.01
2018-03-28T17:30:15.751Z,6.88
2018-03-28T17:32:43.381Z,6.72
2018-03-28T17:35:10.956Z,6.71
2018-03-28T17:37:38.531Z,6.63
2018-03-28T17:40:06.195Z,6.51
2018-03-28T17:42:33.789Z,6.34
2018-03-28T17:45:01.386Z,6.37
2018-03-28T17:47:29.035Z,6.28
2018-03-28T17:49:56.625Z,6.21
2018-03-28T17:52:24.200Z,6.24
2018-03-28T17:54:51.817Z,6.07
2018-03-28T17:57:19.414Z,6.07
2018-03-28T17:59:46.993Z,5.96
2018-03-28T18:02:14.605Z,5.77
2018-03-28T18:04:42.185Z,5.58
2018-03-28T18:07:09.764Z,5.44
2018-03-28T18:09:37.371Z,5.33
2018-03-28T18:12:04.958Z,5.28
2018-03-28T18:14:32.563Z,5.30
2018-03-28T18:17:00.178Z,5.23
2018-03-28T18:19:27.960Z,5.09
2018-03-28T18:21:55.573Z,5.05
2018-03-28T18:24:23.202Z,5.02
2018-03-28T18:26:50.773Z,4.94
2018-03-28T18:29:18.383Z,4.82
2018-03-28T18:31:46.020Z,4.78
2018-03-28T18:34:13.619Z,4.74
2018-03-28T18:36:41.189Z,4.68
2018-03-28T18:39:08.813Z,4.66
2018-03-28T18:41:36.397Z,4.77
2018-03-28T18:44:03.992Z,4.67
2018-03-28T18:46:31.619Z,4.66
2018-03-28T18:48:59.202Z,4.65
2018-03-28T18:51:26.785Z,4.53
2018-03-28T18:53:54.465Z,4.38
2018-03-28T18:56:22.051Z,4.27
2018-03-28T18:58:49.646Z,4.30
2018-03-28T19:01:17.276Z,4.23
2018-03-28T19:03:44.875Z,4.17
2018-03-28T19:06:12.455Z,4.14
2018-03-28T19:08:40.076Z,4.08
2018-03-28T19:11:07.658Z,4.00
2018-03-28T19:13:35.265Z,3.92
2018-03-28T19:16:02.879Z,3.83
2018-03-28T19:18:30.500Z,3.77
2018-03-28T19:20:58.100Z,3.69
2018-03-28T19:23:25.710Z,3.65
2018-03-28T19:25:53.289Z,3.64
2018-03-28T19:28:20.881Z,3.53
2018-03-28T19:30:48.511Z,3.47
2018-03-28T19:33:16.137Z,3.38
2018-03-28T19:35:43.812Z,3.35
2018-03-28T19:38:11.443Z,3.18
2018-03-28T19:40:39.042Z,3.22
2018-03-28T19:43:06.649Z,3.11
2018-03-28T19:45:34.254Z,3.10
2018-03-28T19:48:01.841Z,3.07
2018-03-28T19:50:29.569Z,3.00
2018-03-28T19:52:57.201Z,2.96
2018-03-28T19:55:24.786Z,2.95
2018-03-28T19:57:52.383Z,2.95
2018-03-28T20:00:20.015Z,2.93
2018-03-28T20:02:47.594Z,2.99
2018-03-28T20:05:15.178Z,2.97
2018-03-28T20:07:42.835Z,2.90
2018-03-28T20:10:10.399Z,2.92
2018-03-28T20:12:37.972Z,2.89
2018-03-28T20:15:05.586Z,2.79
2018-03-28T20:17:35.901Z,2.83
2018-03-28T20:20:03.665Z,2.87
2018-03-28T20:22:31.297Z,2.94
2018-03-28T20:24:58.884Z,2.92
2018-03-28T20:27:26.465Z,2.83
2018-03-28T20:29:54.081Z,2.76
2018-03-28T20:32:21.672Z,2.68
2018-03-28T20:34:49.266Z,2.58
2018-03-28T20:37:16.881Z,2.57
2018-03-28T20:39:44.460Z,2.57
2018-03-28T20:42:12.081Z,2.56
2018-03-28T20:44:39.682Z,2.47
2018-03-28T20:47:07.284Z,2.52
2018-03-28T20:49:34.913Z,2.48
2018-03-28T20:52:02.542Z,2.45
2018-03-28T20:54:30.146Z,2.37
2018-03-28T20:56:57.735Z,2.25
2018-03-28T20:59:25.457Z,2.24
2018-03-28T21:01:53.048Z,2.27
2018-03-28T21:04:20.662Z,2.26
2018-03-28T21:06:48.295Z,2.21
2018-03-28T21:09:16.819Z,2.23
2018-03-28T21:11:44.409Z,2.25
2018-03-28T21:14:12.033Z,2.24
2018-03-28T21:16:39.610Z,2.17
2018-03-28T21:19:07.220Z,2.11
2018-03-28T21:21:34.859Z,2.05
2018-03-28T21:24:02.465Z,2.13
2018-03-28T21:26:30.046Z,2.11
2018-03-28T21:28:57.692Z,2.05
2018-03-28T21:31:25.284Z,2.09
2018-03-28T21:33:52.863Z,2.20
2018-03-28T21:36:20.473Z,2.23
2018-03-28T21:38:48.054Z,2.26
2018-03-28T21:41:15.645Z,2.26
2018-03-28T21:43:43.294Z,2.25
2018-03-28T21:46:10.918Z,2.27
2018-03-28T21:48:38.594Z,2.25
2018-03-28T21:51:06.228Z,2.19
2018-03-28T21:53:33.808Z,2.13
2018-03-28T21:56:01.390Z,2.12
2018-03-28T21:58:29.015Z,2.24
2018-03-28T22:00:56.609Z,2.32
2018-03-28T22:03:24.236Z,2.40
2018-03-28T22:05:52.032Z,2.40
2018-03-28T22:08:19.708Z,2.33
2018-03-28T22:10:47.339Z,2.30
2018-03-28T22:13:14.975Z,2.31
2018-03-28T22:15:42.577Z,2.36
2018-03-28T22:18:10.162Z,2.34
2018-03-28T22:20:37.794Z,2.24
2018-03-28T22:23:05.379Z,2.09
2018-03-28T22:25:32.971Z,2.12
2018-03-28T22:28:00.603Z,2.07
2018-03-28T22:30:28.207Z,1.97
2018-03-28T22:32:55.804Z,1.91
2018-03-28T22:35:23.450Z,1.86
2018-03-28T22:37:51.042Z,1.80
2018-03-28T22:40:18.657Z,1.78
2018-03-28T22:42:46.286Z,1.72
2018-03-28T22:45:13.925Z,1.70
2018-03-28T22:47:41.537Z,1.68
2018-03-28T22:50:09.167Z,1.75
2018-03-28T22:52:36.760Z,1.76
2018-03-28T22:55:04.363Z,1.68
2018-03-28T22:57:32.002Z,1.67
2018-03-28T22:59:59.599Z,1.63
2018-03-28T23:02:27.205Z,1.68
2018-03-28T23:04:54.860Z,1.71
2018-03-28T23:07:22.456Z,1.72
2018-03-28T23:09:50.090Z,1.72
2018-03-28T23:12:17.722Z,1.69
2018-03-28T23:14:45.326Z,1.58
2018-03-28T23:17:12.926Z,1.55
2018-03-28T23:19:40.610Z,1.53
2018-03-28T23:22:08.285Z,1.51
2018-03-28T23:24:35.886Z,1.40
2018-03-28T23:27:03.639Z,1.36
2018-03-28T23:29:31.241Z,1.38
2018-03-28T23:31:58.838Z,1.35
2018-03-28T23:34:26.472Z,1.42
2018-03-28T23:36:54.077Z,1.40
2018-03-28T23:39:21.682Z,1.35
2018-03-28T23:41:49.310Z,1.30
2018-03-28T23:44:16.922Z,1.22
2018-03-28T23:46:44.591Z,1.20
2018-03-28T23:49:12.242Z,1.17
2018-03-28T23:51:39.842Z,1.19
2018-03-28T23:54:07.449Z,1.17
2018-03-28T23:56:35.090Z,1.07
2018-03-28T23:59:02.694Z,1.02
